Extreme weather reports worldwide

Highest temperatures

Station
 
Location
 
Name
 
Wind
Knots
Gust
Knots
Vis
SM
Temp/Dew
C
Baro
inHg
METAR
 
MSSM San Miguel, SV El Papalon Airport 3 6.21 37/18 29.82 MSSM 251850Z 36003KT 9999 FEW035 37/18 Q1010 A2984 SCT120
NQN SAZN Neuquen, AR Presidente Peron Airport 3 6.21 37/11 29.73 SAZN 251900Z 20003KT CAVOK 37/11 Q1007
SJS SLJE San José de Chiquitos, BO San José De Chiquitos Airport 0 6.21 37/25 29.82 SLJE 251900Z 00000KT 9999 SCT020 37/25 Q1010
PSZ SLPS Puerto Suárez, BO Capitán Av. Salvador Ogaya G. airport 6 6.21 37/26 29.70 SLPS 251900Z 34006KT 9999 FEW020 37/26 Q1006
GOOD 4 6.21 36/11 29.82 GOOD 251900Z 06004KT CAVOK 36/11 Q1010

Station
 
Location
 
Name
 
Wind
Knots
Gust
Knots
Vis
SM
Temp/Dew
C
Baro
inHg
METAR
 
MAX GOSM Matam, SN Ouro Sogui Airport 4 2.49 36/5 29.85 GOSM 251900Z 06004KT 4000 DU NSC 36/05 Q1011
MHCH 8 6.21 36/20 MHCH 251900Z 02008KT 9999 SCT034 36/20
MNCH Chinandega, NI Chinandega Airport 6 6.21 36/17 29.82 MNCH 251900Z 35006KT 9999 FEW025 36/17 Q1010
CMG SBCR Corumbá, BR Corumbá International Airport 4 6.21 36/24 29.68 SBCR 251900Z 28004KT 210V330 9999 BKN033 36/24 Q1005
RBO SLRB Roboré, BO Roboré Airport 0 6.21 36/22 29.76 SLRB 251900Z 00000KT 9999 SCT020 36/22 Q1008
VVI SLVR Santa Cruz, BO Viru Viru International Airport 10 6.21 36/24 29.76 SLVR 251900Z 33010KT 9999 SCT020 36/24 Q1008
TUD GOTT Tambacounda, SN Tambacounda Airport 8 3.73 35/13 29.79 GOTT 251900Z 03008KT 6000 NSC 35/13 Q1009
CGB SBCY Cuiabá, BR Marechal Rondon Airport 4 6.21 35/22 29.70 SBCY 251900Z 35004KT 9999 SCT020 35/22 Q1006
PAV SBUF Paulo Afonso, BR Paulo Afonso Airport 7 6.21 35/14 29.76 SBUF 251900Z 09007KT 9999 BKN022 35/14 Q1008
SRZ SLET Santa Cruz, BO El Trompillo Airport 10 6.21 35/23 29.73 SLET 251900Z 31010KT 9999 SCT023 FEW030CB 35/23 Q1007
SLRQ 0 6.21 35/28 29.73 SLRQ 251900Z 00000KT 9999 SCT020 SCT200 35/28 Q1007
REY SLRY Reyes, BO Reyes Airport 0 6.21 35/26 29.73 SLRY 251900Z 00000KT 9999 SCT017 SCT020 35/26 Q1007
SAL MSLP San Salvador (San Luis Talpa), SV Monseñor Óscar Arnulfo Romero International Airport 7 6.21 34/19 29.82 MSLP 251850Z 17007KT 080V240 9999 FEW067 34/19 Q1010 A2983 NOSIG
MSLU 4 6.21 34/20 29.82 MSLU 251850Z 14004KT CAVOK 34/20 Q1010 A2983
HUX MMBT Huatulco, MX Bahías de Huatulco International Airport 10 7 34/17 29.89 MMBT 251855Z 18010KT 7SM FEW030 34/17 A2989 RMK 8/100
POD GOSP Podor, SN Podor Airport 2 3.73 34/6 29.85 GOSP 251900Z 04002KT 6000 NSC 34/06 Q1011
XLS GOSS Saint Louis, SN Saint Louis Airport 6 6.21 34/4 29.85 GOSS 251900Z 04006KT 350V090 CAVOK 34/04 Q1011
MGMT 4 6.21 34/23 MGMT 251900Z 18004KT CAVOK 34/23 FEW070
RER MGRT Retalhuleu, GT Retalhuleu Airport 8 6.21 34/22 29.91 MGRT 251900Z 22008KT 9999 SCT020 34/22 Q1013 A2991 VOL,SANTA MARIA Y SANTIAGUITO EN ACTIVIDAD
MGTU 6 6.21 34/20 MGTU 251900Z 18006KT 9999 FEW018 34/20
MGA MNMG Managua, NI Augusto C. Sandino (Managua) International Airport 20 6.21 34/18 29.82 MNMG 251900Z 09020KT 9999 FEW024 34/18 Q1010 A2984 NOSIG
DAV MPDA David, PA Enrique Malek International Airport 19 30 6.21 34/19 29.76 MPDA 251900Z 04019G30KT 9999 FEW020 34/19 Q1008
LIR MRLB Liberia, CR Daniel Oduber Quiros International Airport 20 30 6.21 34/17 29.78 MRLB 251900Z 08020G30KT CAVOK 34/17 A2978
MDZ SAME Mendoza, AR El Plumerillo Airport 10 6.21 34/15 29.79 SAME 251900Z 36010KT 9999 BKN040 34/15 Q1009
RES SARE Resistencia, AR Resistencia International Airport 9 6.21 34/14 29.82 SARE 251900Z 12009KT 080V160 9999 FEW030 34/14 Q1010
IGU SBFI Foz Do Iguaçu, BR Cataratas International Airport 6 6.21 34/15 29.76 SBFI 251900Z 18006KT 9999 FEW030 34/15 Q1008
SJP SBSR São José Do Rio Preto, BR Prof. Eribelto Manoel Reino State Airport 4 6.21 34/18 29.76 SBSR 251900Z 28004KT 9999 FEW030TCU SCT040 34/18 Q1008
LSQ SCGE Los Angeles, CL María Dolores Airport 4 6.21 34/12 29.73 SCGE 251900Z VRB04KT CAVOK 34/12 Q1007
AGT SGES Ciudad del Este, PY Guarani International Airport 8 6.21 34/25 29.76 SGES 251900Z 16008KT 9999 BKN027 FEW040TCU 34/25 Q1008
SNG SLSI San Ignacio de Velasco, BO Capitán Av. Juan Cochamanidis S. Airport 5 6.21 34/23 29.68 SLSI 251900Z 33005KT 9999 SCT017 34/23 Q1005
TAP MMTP Tapachula, MX Tapachula International Airport 10 10 33/22 29.87 MMTP 251840Z 26010KT 10SM FEW030 SCT080 33/22 A2987 RMK 8/130 HZY
MSAC San Miguel, SV La Aramuaca Airport 9 6.21 33/24 29.79 MSAC 251850Z 22009KT 9999 FEW037 33/24 Q1009 A2981
PAP MTPP Port-au-Prince, HT Toussaint Louverture International Airport 14 33/12 29.94 MTPP 251859Z AUTO 10014KT 070V130 //// ////// 33/12 Q1014 A2996 NOSIG
ABV DNAA Abuja, NG Nnamdi Azikiwe International Airport 3 3.11 33/9 29.82 DNAA 251900Z 27003KT 5000 HZ NSC 33/09 Q1010 NOSIG
GSJ MGSJ Puerto San José, GT San José Airport 14 3.11 33/21 29.88 MGSJ 251900Z 20014KT 5000 FU SKC 33/21 Q1012 A2988
MPPA 13 6.21 33/23 29.76 MPPA 251900Z 03013KT 9999 SCT018 33/23 Q1008
CNQ SARC Corrientes, AR Corrientes Airport 13 4.97 33/15 29.82 SARC 251900Z 20013KT 8000 FEW025 33/15 Q1010
IGR SARI Puerto Iguazu, AR Cataratas Del Iguazú International Airport 8 6.21 33/18 29.76 SARI 251900Z 20008KT 9999 SCT030 33/18 Q1008
PSS SARP Posadas, AR Libertador Gral D Jose De San Martin Airport 7 6.21 33/15 29.82 SARP 251900Z 14007KT CAVOK 33/15 Q1010
BRC SAZS San Carlos de Bariloche, AR San Carlos De Bariloche Airport 11 6.21 33/-6 29.85 SAZS 251900Z 32011KT CAVOK 33/M06 Q1011
BPG SBBW Barra Do Garças, BR Barra do Garças Airport 8 6.21 33/24 29.79 SBBW 251900Z 01008KT 9999 SCT020 FEW025TCU 33/24 Q1009
PPB SBDN Presidente Prudente, BR Presidente Prudente Airport 0 6.21 33/16 29.73 SBDN 251900Z 00000KT 9999 SCT045 33/16 Q1007
SBJE 10 6.21 33/24 29.70 SBJE 251900Z 05010KT 9999 FEW020 33/24 Q1006
THE SBTE Teresina, BR Senador Petrônio Portela Airport 5 6.21 33/23 29.70 SBTE 251900Z 16005KT 9999 BKN040 33/23 Q1006
ENO SGEN Encarnación, PY Encarnación Airport 7 6.21 33/11 29.85 SGEN 251900Z 23007KT CAVOK 33/11 Q1011